createdAt,value
2018-12-25T00:00:02.761Z,1031.26
2018-12-25T00:01:02.789Z,1031.25
2018-12-25T00:02:02.732Z,1031.23
2018-12-25T00:03:02.729Z,1031.27
2018-12-25T00:04:02.696Z,1031.23
2018-12-25T00:05:02.726Z,1031.25
2018-12-25T00:06:02.676Z,1031.28
2018-12-25T00:07:02.695Z,1031.27
2018-12-25T00:08:02.688Z,1031.30
2018-12-25T00:09:02.654Z,1031.28
2018-12-25T00:10:02.631Z,1031.24
2018-12-25T00:11:02.638Z,1031.24
2018-12-25T00:12:02.649Z,1031.20
2018-12-25T00:13:02.625Z,1031.22
2018-12-25T00:14:02.599Z,1031.25
2018-12-25T00:15:02.580Z,1031.23
2018-12-25T00:16:02.580Z,1031.25
2018-12-25T00:17:02.558Z,1031.21
2018-12-25T00:18:02.616Z,1031.17
2018-12-25T00:19:06.172Z,1031.16
2018-12-25T00:20:02.584Z,1031.17
2018-12-25T00:21:02.522Z,1031.20
2018-12-25T00:22:02.505Z,1031.17
2018-12-25T00:23:02.494Z,1031.21
2018-12-25T00:24:02.516Z,1031.15
2018-12-25T00:25:02.524Z,1031.15
2018-12-25T00:26:02.463Z,1031.18
2018-12-25T00:27:02.469Z,1031.19
2018-12-25T00:28:02.445Z,1031.21
2018-12-25T00:29:02.450Z,1031.23
2018-12-25T00:30:02.438Z,1031.26
2018-12-25T00:31:02.436Z,1031.31
2018-12-25T00:32:02.424Z,1031.26
2018-12-25T00:33:02.410Z,1031.24
2018-12-25T00:34:02.408Z,1031.23
2018-12-25T00:35:02.368Z,1031.21
2018-12-25T00:36:02.376Z,1031.23
2018-12-25T00:37:02.354Z,1031.26
2018-12-25T00:38:02.346Z,1031.29
2018-12-25T00:39:02.349Z,1031.29
2018-12-25T00:40:02.318Z,1031.28
2018-12-25T00:41:02.304Z,1031.27
2018-12-25T00:42:02.296Z,1031.22
2018-12-25T00:43:02.286Z,1031.26
2018-12-25T00:44:02.305Z,1031.21
2018-12-25T00:45:02.354Z,1031.18
2018-12-25T00:46:02.262Z,1031.19
2018-12-25T00:47:02.241Z,1031.11
2018-12-25T00:48:02.238Z,1031.10
2018-12-25T00:49:02.250Z,1031.03
2018-12-25T00:50:02.210Z,1031.03
2018-12-25T00:51:02.239Z,1030.97
2018-12-25T00:52:02.226Z,1030.91
2018-12-25T00:53:02.186Z,1030.93
2018-12-25T00:54:02.177Z,1030.95
2018-12-25T00:55:02.177Z,1030.87
2018-12-25T00:56:02.146Z,1030.86
2018-12-25T00:57:02.141Z,1030.85
2018-12-25T00:58:02.121Z,1030.85
2018-12-25T00:59:02.142Z,1030.85
2018-12-25T01:00:02.126Z,1030.82
2018-12-25T01:01:02.170Z,1030.84
2018-12-25T01:02:02.265Z,1030.84
2018-12-25T01:03:02.081Z,1030.88
2018-12-25T01:04:02.059Z,1030.91
2018-12-25T01:05:02.084Z,1030.90
2018-12-25T01:06:02.049Z,1030.88
2018-12-25T01:07:02.049Z,1030.90
2018-12-25T01:08:02.033Z,1030.86
2018-12-25T01:09:02.022Z,1030.87
2018-12-25T01:10:02.049Z,1030.90
2018-12-25T01:11:01.991Z,1030.92
2018-12-25T01:12:01.985Z,1030.95
2018-12-25T01:13:01.971Z,1030.92
2018-12-25T01:14:01.959Z,1030.92
2018-12-25T01:15:01.987Z,1030.94
2018-12-25T01:16:01.951Z,1030.95
2018-12-25T01:17:01.933Z,1031.03
2018-12-25T01:18:01.948Z,1030.99
2018-12-25T01:19:01.917Z,1031.03
2018-12-25T01:20:01.935Z,1031.04
2018-12-25T01:21:01.893Z,1031.01
2018-12-25T01:22:01.868Z,1031.05
2018-12-25T01:23:01.875Z,1031.05
2018-12-25T01:24:01.854Z,1031.05
2018-12-25T01:25:01.879Z,1031.05
2018-12-25T01:26:01.842Z,1031.03
2018-12-25T01:27:01.877Z,1031.08
2018-12-25T01:28:01.828Z,1031.06
2018-12-25T01:29:01.820Z,1031.06
2018-12-25T01:30:01.839Z,1031.05
2018-12-25T01:31:01.774Z,1031.03
2018-12-25T01:32:01.932Z,1031.05
2018-12-25T01:33:01.771Z,1031.09
2018-12-25T01:34:01.761Z,1031.09
2018-12-25T01:35:01.770Z,1031.09
2018-12-25T01:36:01.755Z,1031.08
2018-12-25T01:37:01.716Z,1031.06
2018-12-25T01:38:01.745Z,1031.11
2018-12-25T01:39:01.707Z,1031.08
2018-12-25T01:40:01.693Z,1031.14
2018-12-25T01:41:01.719Z,1031.19
2018-12-25T01:42:01.664Z,1031.13
2018-12-25T01:43:01.651Z,1031.08
2018-12-25T01:44:01.659Z,1031.10
2018-12-25T01:45:01.631Z,1031.13
2018-12-25T01:46:01.640Z,1031.12
2018-12-25T01:47:01.614Z,1031.16
2018-12-25T01:48:01.609Z,1031.17
2018-12-25T01:49:01.586Z,1031.19
2018-12-25T01:50:01.581Z,1031.21
2018-12-25T01:51:01.608Z,1031.25
2018-12-25T01:52:01.591Z,1031.30
2018-12-25T01:53:01.544Z,1031.38
2018-12-25T01:54:01.531Z,1031.33
2018-12-25T01:55:01.551Z,1031.37
2018-12-25T01:56:01.547Z,1031.37
2018-12-25T01:57:01.504Z,1031.33
2018-12-25T01:58:01.496Z,1031.40
2018-12-25T01:59:01.478Z,1031.37
2018-12-25T02:00:01.468Z,1031.40
2018-12-25T02:01:01.478Z,1031.43
2018-12-25T02:02:01.449Z,1031.46
2018-12-25T02:03:01.435Z,1031.47
2018-12-25T02:04:01.436Z,1031.47
2018-12-25T02:05:01.416Z,1031.44
2018-12-25T02:06:01.423Z,1031.46
2018-12-25T02:07:01.393Z,1031.43
2018-12-25T02:08:01.426Z,1031.36
2018-12-25T02:09:01.373Z,1031.35
2018-12-25T02:10:01.374Z,1031.38
2018-12-25T02:11:02.119Z,1031.39
2018-12-25T02:12:01.342Z,1031.38
2018-12-25T02:13:01.331Z,1031.44
2018-12-25T02:14:01.335Z,1031.46
2018-12-25T02:15:01.308Z,1031.42
2018-12-25T02:16:01.358Z,1031.43
2018-12-25T02:17:01.288Z,1031.47
2018-12-25T02:18:01.277Z,1031.45
2018-12-25T02:19:01.279Z,1031.44
2018-12-25T02:20:01.257Z,1031.38
2018-12-25T02:21:01.247Z,1031.36
2018-12-25T02:22:01.274Z,1031.39
2018-12-25T02:23:01.225Z,1031.36
2018-12-25T02:24:01.213Z,1031.39
2018-12-25T02:25:01.204Z,1031.34
2018-12-25T02:26:01.195Z,1031.39
2018-12-25T02:27:01.201Z,1031.37
2018-12-25T02:28:01.173Z,1031.37
2018-12-25T02:29:01.161Z,1031.37
2018-12-25T02:30:01.151Z,1031.40
2018-12-25T02:31:01.147Z,1031.41
2018-12-25T02:32:01.153Z,1031.39
2018-12-25T02:33:01.122Z,1031.38
2018-12-25T02:34:01.117Z,1031.43
2018-12-25T02:35:01.100Z,1031.40
2018-12-25T02:36:01.092Z,1031.39
2018-12-25T02:37:01.096Z,1031.43
2018-12-25T02:38:01.070Z,1031.41
2018-12-25T02:39:01.056Z,1031.38
2018-12-25T02:40:01.056Z,1031.36
2018-12-25T02:41:01.033Z,1031.36
2018-12-25T02:42:01.059Z,1031.39
2018-12-25T02:43:01.020Z,1031.35
2018-12-25T02:44:01.004Z,1031.37
2018-12-25T02:45:00.994Z,1031.37
2018-12-25T02:46:01.030Z,1031.41
2018-12-25T02:47:00.973Z,1031.33
2018-12-25T02:48:00.980Z,1031.34
2018-12-25T02:49:00.957Z,1031.37
2018-12-25T02:50:00.940Z,1031.34
2018-12-25T02:51:00.931Z,1031.30
2018-12-25T02:52:00.927Z,1031.28
2018-12-25T02:53:01.068Z,1031.34
2018-12-25T02:54:00.898Z,1031.31
2018-12-25T02:55:00.896Z,1031.30
2018-12-25T02:56:00.878Z,1031.28
2018-12-25T02:57:00.867Z,1031.26
2018-12-25T02:58:00.896Z,1031.35
2018-12-25T02:59:00.845Z,1031.33
2018-12-25T03:00:00.841Z,1031.27
2018-12-25T03:01:00.824Z,1031.33
2018-12-25T03:02:00.825Z,1031.33
2018-12-25T03:03:00.849Z,1031.28
2018-12-25T03:04:00.799Z,1031.31
2018-12-25T03:05:00.784Z,1031.28
2018-12-25T03:06:00.772Z,1031.30
2018-12-25T03:07:00.760Z,1031.27
2018-12-25T03:08:00.769Z,1031.22
2018-12-25T03:09:00.740Z,1031.21
2018-12-25T03:10:00.740Z,1031.26
2018-12-25T03:11:00.720Z,1031.22
2018-12-25T03:12:00.710Z,1031.27
2018-12-25T03:13:00.716Z,1031.27
2018-12-25T03:14:00.689Z,1031.25
2018-12-25T03:15:00.675Z,1031.31
2018-12-25T03:16:00.681Z,1031.30
2018-12-25T03:17:00.661Z,1031.26
2018-12-25T03:18:00.665Z,1031.25
2018-12-25T03:19:00.634Z,1031.26
2018-12-25T03:20:00.636Z,1031.27
2018-12-25T03:21:00.619Z,1031.22
2018-12-25T03:22:00.615Z,1031.21
2018-12-25T03:23:00.610Z,1031.19
2018-12-25T03:24:00.588Z,1031.23
2018-12-25T03:25:00.575Z,1031.21
2018-12-25T03:26:00.562Z,1031.11
2018-12-25T03:27:00.556Z,1031.11
2018-12-25T03:28:00.585Z,1031.09
2018-12-25T03:29:00.527Z,1031.07
2018-12-25T03:30:00.604Z,1031.08
2018-12-25T03:31:00.509Z,1031.12
2018-12-25T03:32:00.500Z,1031.08
2018-12-25T03:33:00.490Z,1031.09
2018-12-25T03:34:00.507Z,1031.09
2018-12-25T03:35:00.466Z,1031.14
2018-12-25T03:36:00.458Z,1031.10
2018-12-25T03:37:00.447Z,1031.11
2018-12-25T03:38:00.434Z,1031.14
2018-12-25T03:39:00.441Z,1031.10
2018-12-25T03:40:00.419Z,1031.14
2018-12-25T03:41:00.402Z,1031.11
2018-12-25T03:42:00.392Z,1031.09
2018-12-25T03:43:00.381Z,1031.06
2018-12-25T03:44:00.389Z,1031.03
2018-12-25T03:45:00.506Z,1031.01
2018-12-25T03:46:00.358Z,1030.99
2018-12-25T03:47:00.463Z,1030.95
2018-12-25T03:48:00.329Z,1030.99
2018-12-25T03:49:00.334Z,1030.98
2018-12-25T03:50:10.023Z,1031.00
2018-12-25T03:51:01.295Z,1031.02
2018-12-25T03:52:00.295Z,1031.00
2018-12-25T03:53:00.274Z,1031.00
2018-12-25T03:54:00.299Z,1030.95
2018-12-25T03:55:00.306Z,1030.90
2018-12-25T03:56:00.252Z,1030.87
2018-12-25T03:57:00.236Z,1030.88
2018-12-25T03:58:00.231Z,1030.89
2018-12-25T03:59:00.230Z,1030.88
2018-12-25T04:00:00.398Z,1030.83
2018-12-25T04:01:00.197Z,1030.84
2018-12-25T04:02:00.187Z,1030.84
2018-12-25T04:03:00.174Z,1030.89
2018-12-25T04:04:00.188Z,1030.88
2018-12-25T04:05:00.292Z,1030.81
2018-12-25T04:06:00.140Z,1030.86
2018-12-25T04:07:00.129Z,1030.90
2018-12-25T04:08:00.125Z,1030.90
2018-12-25T04:09:00.124Z,1030.92
2018-12-25T04:10:00.337Z,1030.89
2018-12-25T04:11:00.085Z,1030.88
2018-12-25T04:12:00.075Z,1030.90
2018-12-25T04:13:00.065Z,1030.88
2018-12-25T04:14:00.079Z,1030.84
2018-12-25T04:15:00.045Z,1030.83
2018-12-25T04:16:00.051Z,1030.85
2018-12-25T04:17:00.024Z,1030.86
2018-12-25T04:18:00.013Z,1030.81
2018-12-25T04:19:00.025Z,1030.85
2018-12-25T04:19:59.990Z,1030.80
2018-12-25T04:20:59.980Z,1030.83
2018-12-25T04:21:59.987Z,1030.82
2018-12-25T04:22:59.967Z,1030.83
2018-12-25T04:23:59.949Z,1030.83
2018-12-25T04:24:59.955Z,1030.84
2018-12-25T04:25:59.936Z,1030.83
2018-12-25T04:26:59.922Z,1030.84
2018-12-25T04:27:59.923Z,1030.85
2018-12-25T04:28:59.896Z,1030.82
2018-12-25T04:29:59.908Z,1030.84
2018-12-25T04:30:59.875Z,1030.81
2018-12-25T04:31:59.863Z,1030.83
2018-12-25T04:32:59.852Z,1030.72
2018-12-25T04:33:59.851Z,1030.78
2018-12-25T04:34:59.850Z,1030.81
2018-12-25T04:35:59.821Z,1030.80
2018-12-25T04:36:59.810Z,1030.77
2018-12-25T04:37:59.801Z,1030.77
2018-12-25T04:38:59.792Z,1030.75
2018-12-25T04:39:59.802Z,1030.74
2018-12-25T04:40:59.770Z,1030.72
2018-12-25T04:41:59.760Z,1030.69
2018-12-25T04:42:59.747Z,1030.74
2018-12-25T04:43:59.736Z,1030.66
2018-12-25T04:44:59.758Z,1030.70
2018-12-25T04:45:59.727Z,1030.62
2018-12-25T04:46:59.705Z,1030.65
2018-12-25T04:47:59.699Z,1030.67
2018-12-25T04:48:59.683Z,1030.74
2018-12-25T04:49:59.675Z,1030.70
2018-12-25T04:50:59.685Z,1030.74
2018-12-25T04:51:59.670Z,1030.72
2018-12-25T04:52:59.669Z,1030.73
2018-12-25T04:53:59.632Z,1030.79
2018-12-25T04:54:59.621Z,1030.76
2018-12-25T04:55:59.629Z,1030.78
2018-12-25T04:56:59.598Z,1030.73
2018-12-25T04:57:59.602Z,1030.78
2018-12-25T04:58:59.579Z,1030.77
2018-12-25T04:59:59.568Z,1030.83
2018-12-25T05:00:59.582Z,1030.78
2018-12-25T05:01:59.546Z,1030.80
2018-12-25T05:02:59.535Z,1030.81
2018-12-25T05:03:59.537Z,1030.82
2018-12-25T05:04:59.515Z,1030.82
2018-12-25T05:05:59.523Z,1030.84
2018-12-25T05:06:59.495Z,1030.81
2018-12-25T05:07:59.482Z,1030.78
2018-12-25T05:08:59.473Z,1030.82
2018-12-25T05:09:59.480Z,1030.83
2018-12-25T05:10:59.470Z,1030.83
2018-12-25T05:11:59.443Z,1030.87
2018-12-25T05:12:59.447Z,1030.81
2018-12-25T05:13:59.419Z,1030.80
2018-12-25T05:14:59.409Z,1030.79
2018-12-25T05:15:59.430Z,1030.85
2018-12-25T05:16:59.387Z,1030.83
2018-12-25T05:17:59.379Z,1030.84
2018-12-25T05:18:59.367Z,1030.81
2018-12-25T05:19:59.358Z,1030.82
2018-12-25T05:20:59.372Z,1030.82
2018-12-25T05:21:59.345Z,1030.76
2018-12-25T05:22:59.325Z,1030.78
2018-12-25T05:23:59.314Z,1030.79
2018-12-25T05:24:59.305Z,1030.78
2018-12-25T05:25:59.293Z,1030.78
2018-12-25T05:26:59.299Z,1030.81
2018-12-25T05:27:59.286Z,1030.78
2018-12-25T05:28:59.265Z,1030.77
2018-12-25T05:29:59.259Z,1030.79
2018-12-25T05:30:59.239Z,1030.78
2018-12-25T05:31:59.247Z,1030.80
2018-12-25T05:32:59.223Z,1030.75
2018-12-25T05:33:59.224Z,1030.77
2018-12-25T05:34:59.203Z,1030.70
2018-12-25T05:35:59.188Z,1030.76
2018-12-25T05:36:59.196Z,1030.74
2018-12-25T05:37:59.166Z,1030.77
2018-12-25T05:38:59.156Z,1030.80
2018-12-25T05:39:59.160Z,1030.73
2018-12-25T05:40:59.134Z,1030.75
2018-12-25T05:41:59.154Z,1030.76
2018-12-25T05:42:59.113Z,1030.78
2018-12-25T05:43:59.102Z,1030.76
2018-12-25T05:44:59.096Z,1030.75
2018-12-25T05:45:59.095Z,1030.73
2018-12-25T05:46:59.072Z,1030.74
2018-12-25T05:47:59.078Z,1030.76
2018-12-25T05:48:59.053Z,1030.72
2018-12-25T05:49:59.039Z,1030.74
2018-12-25T05:50:59.032Z,1030.72
2018-12-25T05:51:59.026Z,1030.71
2018-12-25T05:52:59.026Z,1030.69
2018-12-25T05:53:59.052Z,1030.72
2018-12-25T05:54:58.988Z,1030.74
2018-12-25T05:55:58.976Z,1030.80
2018-12-25T05:56:58.966Z,1030.82
2018-12-25T05:57:58.981Z,1030.86
2018-12-25T05:58:58.944Z,1030.87
2018-12-25T05:59:58.933Z,1030.86
2018-12-25T06:00:58.929Z,1030.88
2018-12-25T06:01:58.913Z,1030.89
2018-12-25T06:02:58.919Z,1030.88
2018-12-25T06:03:58.903Z,1030.87
2018-12-25T06:04:58.882Z,1030.89
2018-12-25T06:05:58.870Z,1030.90
2018-12-25T06:06:58.859Z,1030.93
2018-12-25T06:07:58.867Z,1030.92
2018-12-25T06:08:58.838Z,1030.99
2018-12-25T06:09:58.841Z,1030.96
2018-12-25T06:10:58.828Z,1030.96
2018-12-25T06:11:58.807Z,1030.93
2018-12-25T06:12:58.816Z,1031.01
2018-12-25T06:13:58.786Z,1030.98
2018-12-25T06:14:58.776Z,1030.98
2018-12-25T06:15:58.794Z,1030.99
2018-12-25T06:16:58.759Z,1030.95
2018-12-25T06:17:58.765Z,1031.00
2018-12-25T06:18:58.734Z,1030.91
2018-12-25T06:19:58.723Z,1030.93
2018-12-25T06:20:58.712Z,1030.95
2018-12-25T06:21:58.708Z,1030.95
2018-12-25T06:22:58.709Z,1031.05
2018-12-25T06:23:58.681Z,1031.02
2018-12-25T06:24:58.670Z,1031.04
2018-12-25T06:25:58.661Z,1031.03
2018-12-25T06:26:58.651Z,1031.05
2018-12-25T06:27:58.662Z,1031.03
2018-12-25T06:28:58.633Z,1030.99
2018-12-25T06:29:58.617Z,1031.01
2018-12-25T06:30:58.607Z,1031.00
2018-12-25T06:31:58.597Z,1030.97
2018-12-25T06:32:58.604Z,1030.99
2018-12-25T06:33:58.638Z,1030.99
2018-12-25T06:34:58.567Z,1030.99
2018-12-25T06:35:58.557Z,1030.97
2018-12-25T06:36:58.547Z,1031.00
2018-12-25T06:37:58.553Z,1030.94
2018-12-25T06:38:58.523Z,1030.86
2018-12-25T06:39:58.512Z,1030.93
2018-12-25T06:40:58.526Z,1030.85
2018-12-25T06:41:58.491Z,1030.82
2018-12-25T06:42:58.514Z,1030.83
2018-12-25T06:43:58.472Z,1030.84
2018-12-25T06:44:58.460Z,1030.84
2018-12-25T06:45:58.449Z,1030.83
2018-12-25T06:46:58.449Z,1030.79
2018-12-25T06:47:58.427Z,1030.79
2018-12-25T06:48:58.436Z,1030.82
2018-12-25T06:49:58.414Z,1030.78
2018-12-25T06:51:03.781Z,1030.78
2018-12-25T06:51:59.479Z,1030.76
2018-12-25T06:52:58.383Z,1030.73
2018-12-25T06:53:58.385Z,1030.77
2018-12-25T06:54:58.354Z,1030.72
2018-12-25T06:55:58.344Z,1030.72
2018-12-25T06:56:58.339Z,1030.70
2018-12-25T06:57:58.326Z,1030.71
2018-12-25T06:58:58.346Z,1030.71
2018-12-25T06:59:58.301Z,1030.72
2018-12-25T07:00:58.290Z,1030.78
2018-12-25T07:01:58.284Z,1030.79
2018-12-25T07:02:58.269Z,1030.75
2018-12-25T07:03:58.277Z,1030.76
2018-12-25T07:04:58.254Z,1030.83
2018-12-25T07:05:58.237Z,1030.77
2018-12-25T07:06:58.227Z,1030.80
2018-12-25T07:07:58.217Z,1030.81
2018-12-25T07:08:58.224Z,1030.78
2018-12-25T07:09:58.195Z,1030.77
2018-12-25T07:10:58.194Z,1030.78
2018-12-25T07:11:58.174Z,1030.73
2018-12-25T07:12:58.166Z,1030.74
2018-12-25T07:13:58.177Z,1030.79
2018-12-25T07:14:58.144Z,1030.79
2018-12-25T07:15:58.136Z,1030.81
2018-12-25T07:16:58.143Z,1030.83
2018-12-25T07:17:58.119Z,1030.86
2018-12-25T07:18:58.130Z,1030.85
2018-12-25T07:19:58.095Z,1030.76
2018-12-25T07:20:58.091Z,1030.83
2018-12-25T07:21:58.072Z,1030.81
2018-12-25T07:22:58.091Z,1030.77
2018-12-25T07:23:58.072Z,1030.78
2018-12-25T07:24:58.041Z,1030.77
2018-12-25T07:25:58.026Z,1030.79
2018-12-25T07:26:58.027Z,1030.72
2018-12-25T07:27:58.006Z,1030.75
2018-12-25T07:28:58.044Z,1030.74
2018-12-25T07:29:57.993Z,1030.72
2018-12-25T07:30:58.041Z,1030.71
2018-12-25T07:31:57.983Z,1030.75
2018-12-25T07:32:57.953Z,1030.69
2018-12-25T07:33:57.942Z,1030.68
2018-12-25T07:34:58.012Z,1030.70
2018-12-25T07:35:57.927Z,1030.71
2018-12-25T07:36:57.911Z,1030.73
2018-12-25T07:37:57.923Z,1030.77
2018-12-25T07:38:57.890Z,1030.72
2018-12-25T07:39:57.902Z,1030.64
2018-12-25T07:40:57.868Z,1030.66
2018-12-25T07:41:57.861Z,1030.66
2018-12-25T07:42:57.845Z,1030.65
2018-12-25T07:43:57.838Z,1030.60
2018-12-25T07:44:57.850Z,1030.62
2018-12-25T07:45:57.832Z,1030.60
2018-12-25T07:46:57.804Z,1030.63
2018-12-25T07:47:57.797Z,1030.61
2018-12-25T07:48:57.784Z,1030.58
2018-12-25T07:49:57.793Z,1030.59
2018-12-25T07:50:57.764Z,1030.59
2018-12-25T07:51:57.755Z,1030.60
2018-12-25T07:52:57.742Z,1030.62
2018-12-25T07:53:57.731Z,1030.60
2018-12-25T07:54:57.739Z,1030.56
2018-12-25T07:55:57.709Z,1030.59
2018-12-25T07:56:57.698Z,1030.56
2018-12-25T07:57:57.695Z,1030.58
2018-12-25T07:58:57.679Z,1030.63
2018-12-25T07:59:57.690Z,1030.67
2018-12-25T08:00:57.656Z,1030.67
2018-12-25T08:01:57.650Z,1030.68
2018-12-25T08:02:57.636Z,1030.69
2018-12-25T08:03:57.632Z,1030.70
2018-12-25T08:04:57.632Z,1030.67
2018-12-25T08:05:57.607Z,1030.72
2018-12-25T08:06:57.593Z,1030.71
2018-12-25T08:07:57.584Z,1030.66
2018-12-25T08:08:57.573Z,1030.69
2018-12-25T08:09:57.613Z,1030.66
2018-12-25T08:10:57.556Z,1030.72
2018-12-25T08:11:57.543Z,1030.65
2018-12-25T08:12:57.531Z,1030.69
2018-12-25T08:13:57.521Z,1030.69
2018-12-25T08:14:57.511Z,1030.70
2018-12-25T08:15:57.532Z,1030.69
2018-12-25T08:16:57.490Z,1030.67
2018-12-25T08:17:57.481Z,1030.71
2018-12-25T08:18:57.483Z,1030.63
2018-12-25T08:19:57.458Z,1030.63
2018-12-25T08:20:57.463Z,1030.70
2018-12-25T08:21:57.448Z,1030.62
2018-12-25T08:23:02.613Z,1030.65
2018-12-25T08:23:58.414Z,1030.67
2018-12-25T08:24:57.403Z,1030.63
2018-12-25T08:25:57.411Z,1030.67
2018-12-25T08:26:57.385Z,1030.59
2018-12-25T08:27:57.376Z,1030.63
2018-12-25T08:28:57.370Z,1030.66
2018-12-25T08:29:57.352Z,1030.67
2018-12-25T08:30:57.359Z,1030.67
2018-12-25T08:31:57.332Z,1030.65
2018-12-25T08:32:57.321Z,1030.69
2018-12-25T08:33:57.322Z,1030.70
2018-12-25T08:34:57.322Z,1030.65
2018-12-25T08:35:57.307Z,1030.73
2018-12-25T08:36:57.287Z,1030.74
2018-12-25T08:37:57.266Z,1030.74
2018-12-25T08:38:57.258Z,1030.72
2018-12-25T08:39:57.247Z,1030.73
2018-12-25T08:40:57.268Z,1030.73
2018-12-25T08:41:57.229Z,1030.77
2018-12-25T08:42:57.213Z,1030.77
2018-12-25T08:43:57.284Z,1030.75
2018-12-25T08:44:57.194Z,1030.76
2018-12-25T08:45:57.201Z,1030.77
2018-12-25T08:47:02.686Z,1030.79
2018-12-25T08:47:58.159Z,1030.81
2018-12-25T08:48:57.150Z,1030.74
2018-12-25T08:49:57.141Z,1030.70
2018-12-25T08:50:57.158Z,1030.73
2018-12-25T08:51:57.122Z,1030.78
2018-12-25T08:52:57.122Z,1030.78
2018-12-25T08:53:57.100Z,1030.84
2018-12-25T08:54:57.101Z,1030.84
2018-12-25T08:55:57.082Z,1030.87
2018-12-25T08:56:57.086Z,1030.87
2018-12-25T08:57:57.065Z,1030.90
2018-12-25T08:58:57.047Z,1030.88
2018-12-25T08:59:57.036Z,1030.90
2018-12-25T09:00:57.037Z,1030.90
2018-12-25T09:01:57.043Z,1030.84
2018-12-25T09:02:57.003Z,1030.84
2018-12-25T09:03:56.999Z,1030.84
2018-12-25T09:04:56.987Z,1030.87
2018-12-25T09:05:56.974Z,1030.87
2018-12-25T09:06:56.979Z,1030.86
2018-12-25T09:07:56.952Z,1030.79
2018-12-25T09:08:56.942Z,1030.76
2018-12-25T09:09:56.945Z,1030.79
2018-12-25T09:10:56.923Z,1030.77
2018-12-25T09:11:56.927Z,1030.75
2018-12-25T09:12:56.900Z,1030.79
2018-12-25T09:13:56.889Z,1030.79
2018-12-25T09:14:56.878Z,1030.77
2018-12-25T09:15:56.885Z,1030.79
2018-12-25T09:16:56.877Z,1030.78
2018-12-25T09:17:56.848Z,1030.82
2018-12-25T09:18:56.840Z,1030.81
2018-12-25T09:19:56.825Z,1030.83
2018-12-25T09:20:56.818Z,1030.80
2018-12-25T09:21:56.861Z,1030.83
2018-12-25T09:22:56.796Z,1030.87
2018-12-25T09:23:56.789Z,1030.85
2018-12-25T09:24:56.773Z,1030.86
2018-12-25T09:25:56.762Z,1030.84
2018-12-25T09:26:56.753Z,1030.83
2018-12-25T09:27:56.764Z,1030.89
2018-12-25T09:28:56.736Z,1030.82
2018-12-25T09:29:56.735Z,1030.89
2018-12-25T09:30:56.714Z,1030.92
2018-12-25T09:31:56.702Z,1030.87
2018-12-25T09:32:56.733Z,1030.88
2018-12-25T09:33:56.688Z,1030.93
2018-12-25T09:34:56.673Z,1030.90
2018-12-25T09:35:56.671Z,1030.94
2018-12-25T09:36:56.656Z,1030.96
2018-12-25T09:37:56.661Z,1030.94
2018-12-25T09:38:56.630Z,1030.95
2018-12-25T09:39:56.627Z,1030.97
2018-12-25T09:40:56.611Z,1031.00
2018-12-25T09:41:56.614Z,1031.03
2018-12-25T09:42:56.611Z,1031.04
2018-12-25T09:43:56.586Z,1031.02
2018-12-25T09:44:56.570Z,1031.02
2018-12-25T09:45:56.562Z,1031.06
2018-12-25T09:46:56.550Z,1031.08
2018-12-25T09:47:56.559Z,1031.08
2018-12-25T09:48:56.536Z,1031.07
2018-12-25T09:49:56.520Z,1031.06
2018-12-25T09:50:56.519Z,1031.04
2018-12-25T09:51:56.502Z,1030.97
2018-12-25T09:52:56.508Z,1030.99
2018-12-25T09:53:56.485Z,1031.00
2018-12-25T09:54:56.480Z,1031.00
2018-12-25T09:55:56.460Z,1031.00
2018-12-25T09:56:56.449Z,1031.00
2018-12-25T09:57:56.457Z,1031.02
2018-12-25T09:58:56.428Z,1031.02
2018-12-25T09:59:56.493Z,1030.98
2018-12-25T10:00:56.412Z,1030.94
2018-12-25T10:01:56.405Z,1030.95
2018-12-25T10:02:56.441Z,1030.98
2018-12-25T10:03:56.390Z,1030.97
2018-12-25T10:04:56.696Z,1030.94
2018-12-25T10:05:56.360Z,1030.92
2018-12-25T10:06:56.346Z,1030.97
2018-12-25T10:07:56.339Z,1030.90
2018-12-25T10:08:56.346Z,1030.84
2018-12-25T10:09:56.321Z,1030.85
2018-12-25T10:10:56.304Z,1030.82
2018-12-25T10:11:56.299Z,1030.80
2018-12-25T10:12:56.284Z,1030.80
2018-12-25T10:13:56.296Z,1030.82
2018-12-25T10:14:56.264Z,1030.80
2018-12-25T10:15:56.261Z,1030.84
2018-12-25T10:16:56.244Z,1030.82
2018-12-25T10:17:56.236Z,1030.72
2018-12-25T10:18:56.242Z,1030.72
2018-12-25T10:19:56.213Z,1030.72
2018-12-25T10:20:56.205Z,1030.71
2018-12-25T10:22:02.963Z,1030.74
2018-12-25T10:22:57.183Z,1030.80
2018-12-25T10:23:56.198Z,1030.73
2018-12-25T10:24:56.162Z,1030.75
2018-12-25T10:25:56.177Z,1030.72
2018-12-25T10:26:56.137Z,1030.74
2018-12-25T10:27:56.131Z,1030.68
2018-12-25T10:28:56.231Z,1030.68
2018-12-25T10:29:56.104Z,1030.67
2018-12-25T10:30:56.103Z,1030.65
2018-12-25T10:31:56.086Z,1030.60
2018-12-25T10:32:56.073Z,1030.62
2018-12-25T10:33:56.096Z,1030.69
2018-12-25T10:34:56.051Z,1030.68
2018-12-25T10:35:56.041Z,1030.69
2018-12-25T10:36:56.029Z,1030.66
2018-12-25T10:37:56.019Z,1030.63
2018-12-25T10:38:56.029Z,1030.68
2018-12-25T10:39:55.999Z,1030.62
2018-12-25T10:40:55.986Z,1030.61
2018-12-25T10:41:55.975Z,1030.58
2018-12-25T10:42:55.965Z,1030.57
2018-12-25T10:43:55.973Z,1030.55
2018-12-25T10:44:55.963Z,1030.54
2018-12-25T10:45:55.941Z,1030.48
2018-12-25T10:46:55.945Z,1030.54
2018-12-25T10:47:56.028Z,1030.54
2018-12-25T10:48:55.927Z,1030.59
2018-12-25T10:49:55.888Z,1030.61
2018-12-25T10:50:55.880Z,1030.57
2018-12-25T10:51:55.870Z,1030.55
2018-12-25T10:52:55.869Z,1030.57
2018-12-25T10:53:55.846Z,1030.58
2018-12-25T10:54:55.855Z,1030.56
2018-12-25T10:55:55.822Z,1030.62
2018-12-25T10:56:55.815Z,1030.60
2018-12-25T10:57:55.807Z,1030.63
2018-12-25T10:58:55.795Z,1030.63
2018-12-25T10:59:55.802Z,1030.68
2018-12-25T11:00:55.768Z,1030.67
2018-12-25T11:01:55.761Z,1030.69
2018-12-25T11:02:55.751Z,1030.68
2018-12-25T11:03:55.757Z,1030.70
2018-12-25T11:04:55.765Z,1030.76
2018-12-25T11:05:55.715Z,1030.70
2018-12-25T11:06:55.707Z,1030.71
2018-12-25T11:07:55.693Z,1030.71
2018-12-25T11:08:55.685Z,1030.73
2018-12-25T11:09:55.710Z,1030.72
2018-12-25T11:10:55.669Z,1030.73
2018-12-25T11:11:55.652Z,1030.75
2018-12-25T11:12:55.641Z,1030.71
2018-12-25T11:13:55.632Z,1030.70
2018-12-25T11:14:56.249Z,1030.72
2018-12-25T11:15:55.628Z,1030.69
2018-12-25T11:16:55.613Z,1030.68
2018-12-25T11:17:55.587Z,1030.67
2018-12-25T11:18:55.573Z,1030.71
2018-12-25T11:19:55.569Z,1030.67
2018-12-25T11:20:55.573Z,1030.62
2018-12-25T11:21:55.543Z,1030.69
2018-12-25T11:22:55.539Z,1030.72
2018-12-25T11:23:55.521Z,1030.71
2018-12-25T11:24:55.510Z,1030.67
2018-12-25T11:25:55.523Z,1030.66
2018-12-25T11:26:55.493Z,1030.62
2018-12-25T11:27:55.477Z,1030.65
2018-12-25T11:28:55.480Z,1030.69
2018-12-25T11:29:55.460Z,1030.68
2018-12-25T11:30:55.461Z,1030.61
2018-12-25T11:31:55.438Z,1030.62
2018-12-25T11:32:55.456Z,1030.63
2018-12-25T11:33:55.413Z,1030.60
2018-12-25T11:34:55.409Z,1030.58
2018-12-25T11:35:55.393Z,1030.62
2018-12-25T11:36:55.380Z,1030.59
2018-12-25T11:37:55.394Z,1030.58
2018-12-25T11:38:55.377Z,1030.59
2018-12-25T11:39:55.384Z,1030.58
2018-12-25T11:40:55.366Z,1030.62
2018-12-25T11:41:55.327Z,1030.65
2018-12-25T11:42:55.317Z,1030.64
2018-12-25T11:43:55.321Z,1030.58
2018-12-25T11:44:55.304Z,1030.62
2018-12-25T11:45:55.314Z,1030.65
2018-12-25T11:46:55.283Z,1030.58
2018-12-25T11:47:55.264Z,1030.59
2018-12-25T11:48:55.251Z,1030.55
2018-12-25T11:49:55.243Z,1030.55
2018-12-25T11:50:55.262Z,1030.55
2018-12-25T11:51:55.221Z,1030.51
2018-12-25T11:52:55.218Z,1030.54
2018-12-25T11:53:55.199Z,1030.51
2018-12-25T11:54:55.191Z,1030.49
2018-12-25T11:55:55.195Z,1030.51
2018-12-25T11:56:55.186Z,1030.46
2018-12-25T11:57:55.159Z,1030.43
2018-12-25T11:58:55.160Z,1030.45
2018-12-25T11:59:55.134Z,1030.41
2018-12-25T12:00:55.122Z,1030.43
2018-12-25T12:01:55.129Z,1030.41
2018-12-25T12:02:55.108Z,1030.38
2018-12-25T12:03:55.093Z,1030.40
2018-12-25T12:04:55.096Z,1030.37